createdAt,value
2019-03-18T00:00:19.439Z,2.67
2019-03-18T00:02:48.807Z,2.97
2019-03-18T00:05:18.164Z,3.77
2019-03-18T00:07:47.903Z,2.73
2019-03-18T00:10:17.233Z,2.60
2019-03-18T00:12:46.793Z,2.73
2019-03-18T00:15:16.376Z,2.93
2019-03-18T00:17:47.499Z,2.23
2019-03-18T00:20:16.854Z,4.17
2019-03-18T00:22:49.407Z,3.47
2019-03-18T00:25:18.867Z,3.23
2019-03-18T00:27:48.205Z,4.90
2019-03-18T00:30:17.858Z,2.80
2019-03-18T00:32:50.409Z,2.83
2019-03-18T00:35:23.495Z,4.33
2019-03-18T00:37:52.709Z,3.67
2019-03-18T00:40:22.485Z,2.97
2019-03-18T00:42:51.770Z,4.17
2019-03-18T00:45:21.138Z,2.57
2019-03-18T00:47:50.504Z,6.07
2019-03-18T00:50:20.961Z,3.13
2019-03-18T00:52:50.346Z,2.73
2019-03-18T00:55:19.642Z,2.43
2019-03-18T00:57:51.067Z,6.30
2019-03-18T01:00:21.154Z,3.37
2019-03-18T01:02:50.461Z,3.10
2019-03-18T01:05:19.736Z,3.30
2019-03-18T01:07:49.420Z,4.17
2019-03-18T01:10:18.732Z,3.40
2019-03-18T01:12:48.137Z,3.37
2019-03-18T01:15:27.424Z,2.83
2019-03-18T01:17:52.089Z,3.87
2019-03-18T01:20:24.705Z,4.00
2019-03-18T01:22:54.408Z,3.17
2019-03-18T01:25:23.744Z,2.90
2019-03-18T01:27:53.024Z,4.97
2019-03-18T01:30:22.372Z,3.20
2019-03-18T01:32:54.573Z,3.70
2019-03-18T01:35:24.662Z,4.93
2019-03-18T01:37:54.286Z,4.93
2019-03-18T01:40:23.628Z,4.10
2019-03-18T01:42:53.080Z,3.80
2019-03-18T01:45:22.660Z,6.47
2019-03-18T01:47:55.700Z,3.03
2019-03-18T01:50:28.126Z,3.40
2019-03-18T01:52:59.910Z,5.97
2019-03-18T01:55:30.569Z,6.50
2019-03-18T01:58:00.290Z,4.13
2019-03-18T02:00:29.674Z,6.03
2019-03-18T02:02:59.370Z,5.37
2019-03-18T02:05:28.804Z,5.23
2019-03-18T02:07:58.196Z,5.87
2019-03-18T02:10:28.016Z,5.23
2019-03-18T02:12:57.348Z,3.37
2019-03-18T02:15:26.743Z,5.17
2019-03-18T02:17:56.334Z,8.43
2019-03-18T02:20:27.626Z,5.20
2019-03-18T02:22:56.684Z,4.27
2019-03-18T02:25:26.333Z,4.50
2019-03-18T02:27:55.987Z,4.67
2019-03-18T02:30:25.278Z,4.37
2019-03-18T02:32:56.805Z,3.60
2019-03-18T02:35:25.912Z,5.13
2019-03-18T02:37:55.879Z,3.80
2019-03-18T02:40:28.927Z,5.33
2019-03-18T02:42:58.580Z,3.90
2019-03-18T02:45:30.781Z,4.63
2019-03-18T02:48:00.067Z,3.97
2019-03-18T02:50:29.546Z,4.10
2019-03-18T02:52:58.842Z,4.47
2019-03-18T02:55:28.185Z,3.47
2019-03-18T02:57:58.632Z,2.60
2019-03-18T03:00:30.509Z,4.23
2019-03-18T03:02:59.850Z,6.73
2019-03-18T03:05:29.840Z,5.27
2019-03-18T03:07:59.447Z,3.67
2019-03-18T03:10:31.739Z,5.00
2019-03-18T03:13:01.460Z,5.10
2019-03-18T03:15:30.829Z,4.80
2019-03-18T03:18:02.087Z,4.63
2019-03-18T03:20:40.398Z,6.13
2019-03-18T03:23:10.089Z,5.43
2019-03-18T03:25:39.571Z,4.33
2019-03-18T03:28:11.012Z,4.27
2019-03-18T03:30:40.366Z,4.33
2019-03-18T03:33:09.641Z,4.70
2019-03-18T03:35:39.297Z,5.40
2019-03-18T03:38:09.301Z,5.73
2019-03-18T03:40:41.451Z,5.17
2019-03-18T03:43:11.520Z,6.30
2019-03-18T03:45:41.211Z,7.10
2019-03-18T03:48:10.462Z,4.47
2019-03-18T03:50:40.629Z,6.03
2019-03-18T03:53:13.019Z,5.73
2019-03-18T03:55:45.495Z,5.90
2019-03-18T03:58:15.672Z,7.83
2019-03-18T04:00:44.946Z,4.93
2019-03-18T04:03:14.364Z,7.17
2019-03-18T04:05:43.637Z,6.03
2019-03-18T04:08:16.196Z,7.03
2019-03-18T04:10:45.504Z,6.90
2019-03-18T04:13:14.850Z,8.23
2019-03-18T04:15:45.406Z,9.90
2019-03-18T04:18:14.693Z,8.13
2019-03-18T04:20:44.348Z,5.40
2019-03-18T04:23:14.044Z,7.57
2019-03-18T04:25:43.441Z,7.70
2019-03-18T04:28:12.718Z,6.07
2019-03-18T04:30:42.055Z,6.03
2019-03-18T04:33:13.814Z,7.47
2019-03-18T04:35:43.147Z,8.43
2019-03-18T04:38:12.505Z,10.10
2019-03-18T04:40:44.624Z,8.40
2019-03-18T04:43:13.986Z,7.10
2019-03-18T04:45:43.307Z,8.03
2019-03-18T04:48:12.700Z,8.57
2019-03-18T04:50:42.048Z,7.77
2019-03-18T04:53:16.470Z,8.07
2019-03-18T04:55:45.862Z,8.00
2019-03-18T04:58:15.520Z,6.87
2019-03-18T05:00:44.786Z,8.90
2019-03-18T05:03:14.087Z,9.70
2019-03-18T05:05:43.428Z,8.37
2019-03-18T05:08:12.986Z,8.37
2019-03-18T05:10:42.288Z,8.13
2019-03-18T05:13:11.864Z,7.70
2019-03-18T05:15:41.116Z,7.73
2019-03-18T05:18:10.420Z,7.97
2019-03-18T05:20:42.353Z,10.57
2019-03-18T05:23:11.782Z,10.40
2019-03-18T05:25:41.172Z,8.13
2019-03-18T05:28:10.755Z,10.03
2019-03-18T05:30:40.100Z,12.60
2019-03-18T05:33:09.543Z,9.63
2019-03-18T05:35:44.064Z,9.03
2019-03-18T05:38:13.338Z,10.17
2019-03-18T05:40:42.640Z,13.40
2019-03-18T05:43:12.308Z,9.03
2019-03-18T05:45:41.694Z,10.10
2019-03-18T05:48:11.358Z,11.97
2019-03-18T05:50:40.549Z,11.53
2019-03-18T05:53:09.784Z,14.70
2019-03-18T05:55:39.648Z,11.70
2019-03-18T05:58:11.978Z,11.53
2019-03-18T06:00:48.571Z,10.23
2019-03-18T06:03:17.921Z,11.97
2019-03-18T06:05:47.268Z,11.23
2019-03-18T06:08:16.881Z,11.97
2019-03-18T06:10:46.144Z,13.47
2019-03-18T06:13:15.503Z,13.33
2019-03-18T06:15:44.899Z,12.57
2019-03-18T06:18:14.272Z,12.70
2019-03-18T06:20:43.800Z,11.57
2019-03-18T06:23:13.570Z,12.83
2019-03-18T06:25:43.126Z,11.10
2019-03-18T06:28:15.164Z,10.97
2019-03-18T06:30:44.904Z,15.03
2019-03-18T06:33:14.578Z,13.50
2019-03-18T06:35:44.300Z,15.83
2019-03-18T06:38:13.869Z,13.63
2019-03-18T06:40:43.163Z,15.53
2019-03-18T06:43:12.509Z,11.83
2019-03-18T06:45:42.604Z,12.60
2019-03-18T06:48:12.290Z,12.63
2019-03-18T06:50:41.651Z,11.57
2019-03-18T06:53:11.053Z,11.73
2019-03-18T06:55:40.388Z,13.23
2019-03-18T06:58:09.767Z,14.07
2019-03-18T07:00:41.961Z,12.83
2019-03-18T07:03:11.410Z,16.03
2019-03-18T07:05:40.966Z,13.97
2019-03-18T07:08:10.380Z,13.90
2019-03-18T07:10:39.659Z,13.50
2019-03-18T07:13:10.659Z,11.63
2019-03-18T07:15:40.419Z,11.10
2019-03-18T07:18:18.122Z,12.90
2019-03-18T07:20:41.629Z,14.27
2019-03-18T07:23:14.077Z,15.23
2019-03-18T07:25:44.748Z,15.73
2019-03-18T07:28:14.132Z,14.57
2019-03-18T07:30:43.563Z,11.77
2019-03-18T07:33:13.289Z,11.83
2019-03-18T07:35:42.572Z,13.97
2019-03-18T07:38:12.073Z,11.70
2019-03-18T07:40:41.545Z,11.53
2019-03-18T07:43:10.879Z,11.67
2019-03-18T07:45:40.564Z,11.70
2019-03-18T07:48:12.482Z,11.90
2019-03-18T07:50:41.396Z,11.13
2019-03-18T07:53:10.997Z,10.47
2019-03-18T07:55:40.657Z,14.50
2019-03-18T07:58:09.924Z,8.97
2019-03-18T08:00:39.593Z,13.00
2019-03-18T08:03:08.960Z,12.83
2019-03-18T08:05:38.364Z,12.50
2019-03-18T08:08:07.886Z,10.70
2019-03-18T08:10:37.172Z,10.27
2019-03-18T08:13:06.497Z,13.57
2019-03-18T08:15:36.270Z,10.47
2019-03-18T08:18:05.582Z,14.43
2019-03-18T08:20:34.859Z,11.33
2019-03-18T08:23:04.228Z,7.27
2019-03-18T08:25:33.945Z,15.53
2019-03-18T08:28:03.288Z,13.20
2019-03-18T08:30:32.516Z,11.90
2019-03-18T08:33:01.785Z,9.07
2019-03-18T08:35:31.015Z,10.83
2019-03-18T08:38:00.964Z,12.43
2019-03-18T08:40:30.254Z,10.77
2019-03-18T08:42:59.719Z,12.57
2019-03-18T08:45:29.025Z,7.67
2019-03-18T08:47:58.392Z,8.27
2019-03-18T08:50:27.749Z,11.80
2019-03-18T08:52:57.384Z,11.03
2019-03-18T08:55:28.147Z,7.13
2019-03-18T08:57:57.920Z,9.23
2019-03-18T09:00:27.228Z,12.97
2019-03-18T09:02:56.587Z,14.57
2019-03-18T09:05:25.783Z,13.00
2019-03-18T09:07:55.534Z,10.27
2019-03-18T09:10:25.271Z,8.60
2019-03-18T09:12:54.622Z,8.13
2019-03-18T09:15:24.438Z,9.07
2019-03-18T09:17:54.097Z,9.40
2019-03-18T09:20:23.566Z,8.13
2019-03-18T09:22:53.313Z,12.63
2019-03-18T09:25:25.454Z,10.57
2019-03-18T09:27:54.791Z,7.53
2019-03-18T09:30:24.012Z,6.00
2019-03-18T09:32:53.728Z,7.40
2019-03-18T09:35:23.425Z,10.40
2019-03-18T09:37:52.793Z,9.07
2019-03-18T09:40:22.165Z,9.80
2019-03-18T09:42:51.528Z,8.13
2019-03-18T09:45:20.921Z,6.87
2019-03-18T09:47:50.259Z,9.13
2019-03-18T09:50:20.053Z,6.57
2019-03-18T09:52:49.389Z,8.03
2019-03-18T09:55:18.741Z,6.70
2019-03-18T09:57:48.012Z,5.20
2019-03-18T10:00:17.752Z,6.23
2019-03-18T10:02:47.178Z,5.53
2019-03-18T10:05:16.548Z,7.20
2019-03-18T10:07:46.061Z,7.43
2019-03-18T10:10:15.421Z,5.50
2019-03-18T10:12:44.751Z,8.70
2019-03-18T10:15:14.193Z,5.37
2019-03-18T10:17:43.692Z,8.47
2019-03-18T10:20:13.549Z,5.30
2019-03-18T10:22:43.602Z,9.57
2019-03-18T10:25:13.314Z,5.40
2019-03-18T10:27:42.589Z,6.83
2019-03-18T10:30:13.140Z,7.20
2019-03-18T10:32:42.751Z,5.67
2019-03-18T10:35:12.043Z,4.93
2019-03-18T10:37:41.475Z,5.67
2019-03-18T10:40:11.835Z,6.20
2019-03-18T10:42:41.180Z,6.57
2019-03-18T10:45:11.168Z,6.43
2019-03-18T10:47:40.526Z,7.13
2019-03-18T10:50:10.497Z,4.80
2019-03-18T10:52:40.212Z,6.30
2019-03-18T10:55:10.114Z,6.67
2019-03-18T10:57:39.754Z,6.27
2019-03-18T11:00:10.853Z,5.93
2019-03-18T11:02:40.241Z,7.83
2019-03-18T11:05:10.044Z,6.37
2019-03-18T11:07:39.346Z,5.00
2019-03-18T11:10:12.482Z,4.10
2019-03-18T11:12:40.659Z,7.13
2019-03-18T11:15:11.287Z,6.07
2019-03-18T11:17:40.596Z,4.00
2019-03-18T11:20:11.157Z,6.80
2019-03-18T11:22:40.557Z,5.43
2019-03-18T11:25:09.890Z,5.50
2019-03-18T11:27:39.644Z,4.83
2019-03-18T11:30:09.748Z,7.27
2019-03-18T11:32:39.714Z,5.47
2019-03-18T11:35:09.956Z,7.23
2019-03-18T11:37:39.388Z,5.57
2019-03-18T11:40:10.006Z,9.00
2019-03-18T11:42:39.280Z,8.50
2019-03-18T11:45:10.238Z,5.83
2019-03-18T11:47:39.504Z,4.03
2019-03-18T11:50:11.540Z,3.43
2019-03-18T11:52:40.736Z,3.43
2019-03-18T11:55:12.178Z,4.67
2019-03-18T11:57:41.374Z,5.20
2019-03-18T12:00:13.146Z,5.80
2019-03-18T12:02:42.500Z,5.03
2019-03-18T12:05:13.695Z,5.73
2019-03-18T12:07:43.122Z,6.03
2019-03-18T12:10:14.685Z,5.60
2019-03-18T12:12:44.033Z,6.13
2019-03-18T12:15:14.284Z,6.77
2019-03-18T12:17:43.575Z,5.17
2019-03-18T12:20:23.709Z,4.97
2019-03-18T12:22:44.881Z,4.47
2019-03-18T12:25:14.585Z,3.80
2019-03-18T12:27:43.943Z,5.37
2019-03-18T12:30:16.260Z,5.37
2019-03-18T12:32:45.614Z,3.63
2019-03-18T12:35:15.084Z,3.87
2019-03-18T12:37:44.575Z,3.37
2019-03-18T12:40:14.667Z,5.47
2019-03-18T12:42:43.997Z,4.80
2019-03-18T12:45:14.511Z,2.40
2019-03-18T12:47:43.869Z,6.00
2019-03-18T12:50:15.165Z,3.17
2019-03-18T12:52:44.405Z,2.23
2019-03-18T12:55:14.245Z,5.00
2019-03-18T12:57:43.604Z,5.07
2019-03-18T13:00:15.831Z,2.37
2019-03-18T13:02:45.184Z,5.33
2019-03-18T13:05:14.966Z,4.83
2019-03-18T13:07:44.401Z,4.03
2019-03-18T13:10:14.356Z,5.43
2019-03-18T13:12:44.063Z,5.00
2019-03-18T13:15:14.631Z,7.33
2019-03-18T13:17:44.245Z,5.17
2019-03-18T13:20:14.218Z,6.23
2019-03-18T13:22:43.620Z,4.87
2019-03-18T13:25:13.041Z,8.23
2019-03-18T13:27:42.504Z,3.77
2019-03-18T13:30:15.440Z,5.40
2019-03-18T13:32:45.183Z,5.87
2019-03-18T13:35:14.803Z,6.10
2019-03-18T13:37:44.666Z,6.23
2019-03-18T13:40:14.713Z,4.97
2019-03-18T13:42:44.101Z,5.63
2019-03-18T13:45:14.811Z,3.87
2019-03-18T13:47:45.046Z,6.07
2019-03-18T13:50:15.427Z,5.13
2019-03-18T13:52:45.176Z,5.47
2019-03-18T13:55:14.513Z,3.90
2019-03-18T13:57:44.021Z,4.20
2019-03-18T14:00:14.785Z,5.23
2019-03-18T14:02:44.445Z,4.10
2019-03-18T14:05:13.722Z,4.77
2019-03-18T14:07:43.209Z,5.27
2019-03-18T14:10:13.525Z,5.20
2019-03-18T14:12:43.624Z,6.27
2019-03-18T14:15:14.624Z,3.83
2019-03-18T14:17:43.963Z,4.33
2019-03-18T14:20:14.727Z,5.33
2019-03-18T14:22:44.054Z,6.07
2019-03-18T14:25:13.810Z,7.00
2019-03-18T14:27:43.489Z,3.67
2019-03-18T14:30:14.838Z,6.60
2019-03-18T14:32:44.051Z,4.63
2019-03-18T14:35:13.956Z,5.20
2019-03-18T14:37:43.262Z,3.37
2019-03-18T14:40:13.423Z,3.63
2019-03-18T14:42:43.128Z,4.00
2019-03-18T14:45:14.966Z,4.80
2019-03-18T14:47:44.320Z,3.17
2019-03-18T14:50:14.511Z,4.90
2019-03-18T14:52:43.879Z,4.10
2019-03-18T14:55:13.405Z,6.30
2019-03-18T14:57:42.687Z,5.10
2019-03-18T15:00:17.354Z,6.73
2019-03-18T15:02:47.137Z,4.63
2019-03-18T15:05:16.451Z,2.57
2019-03-18T15:07:46.044Z,4.37
2019-03-18T15:10:15.895Z,3.23
2019-03-18T15:12:45.327Z,4.27
2019-03-18T15:15:15.874Z,4.83
2019-03-18T15:17:45.991Z,5.00
2019-03-18T15:20:15.298Z,5.33
2019-03-18T15:22:44.603Z,3.97
2019-03-18T15:25:16.250Z,6.07
2019-03-18T15:27:45.892Z,4.23
2019-03-18T15:30:16.717Z,3.37
2019-03-18T15:32:46.068Z,4.83
2019-03-18T15:35:15.678Z,6.10
2019-03-18T15:37:45.306Z,4.20
2019-03-18T15:40:15.913Z,6.13
2019-03-18T15:42:45.744Z,4.10
2019-03-18T15:45:15.972Z,4.63
2019-03-18T15:47:45.252Z,4.47
2019-03-18T15:50:15.906Z,6.27
2019-03-18T15:52:45.297Z,7.70
2019-03-18T15:55:14.708Z,9.20
2019-03-18T15:57:44.361Z,7.13
2019-03-18T16:00:15.493Z,5.93
2019-03-18T16:02:44.744Z,8.03
2019-03-18T16:05:14.277Z,7.13
2019-03-18T16:07:44.012Z,6.50
2019-03-18T16:10:14.359Z,4.90
2019-03-18T16:12:44.247Z,3.57
2019-03-18T16:15:14.754Z,4.47
2019-03-18T16:17:44.476Z,4.77
2019-03-18T16:20:14.456Z,3.47
2019-03-18T16:22:44.133Z,4.10
2019-03-18T16:25:13.403Z,4.40
2019-03-18T16:27:42.635Z,3.93
2019-03-18T16:30:13.817Z,6.53
2019-03-18T16:32:43.361Z,4.63
2019-03-18T16:35:15.745Z,5.57
2019-03-18T16:37:44.162Z,6.13
2019-03-18T16:40:14.093Z,3.60
2019-03-18T16:42:43.476Z,3.23
2019-03-18T16:45:13.685Z,5.00
2019-03-18T16:47:43.173Z,6.00
2019-03-18T16:50:13.952Z,5.57
2019-03-18T16:52:43.344Z,7.00
2019-03-18T16:55:13.305Z,5.33
2019-03-18T16:57:42.697Z,5.07
2019-03-18T17:00:14.410Z,7.67
2019-03-18T17:02:44.457Z,7.20
2019-03-18T17:05:14.018Z,4.90
2019-03-18T17:07:43.663Z,5.17
2019-03-18T17:10:13.345Z,6.53
2019-03-18T17:12:42.660Z,3.33
2019-03-18T17:15:11.991Z,6.77
2019-03-18T17:17:41.174Z,7.73
2019-03-18T17:20:12.051Z,7.63
2019-03-18T17:22:49.011Z,5.87
2019-03-18T17:25:14.523Z,3.57
2019-03-18T17:27:43.853Z,5.80
2019-03-18T17:30:15.616Z,8.10
2019-03-18T17:32:44.877Z,5.93
2019-03-18T17:35:14.932Z,10.17
2019-03-18T17:37:44.682Z,7.37
2019-03-18T17:40:14.308Z,6.63
2019-03-18T17:42:43.650Z,6.30
2019-03-18T17:45:16.029Z,6.27
2019-03-18T17:47:45.299Z,3.73
2019-03-18T17:50:16.760Z,6.73
2019-03-18T17:52:46.145Z,6.53
2019-03-18T17:55:15.732Z,10.60
2019-03-18T17:57:45.121Z,6.63
2019-03-18T18:00:32.414Z,4.17
2019-03-18T18:03:01.458Z,7.53
2019-03-18T18:05:30.980Z,7.37
2019-03-18T18:08:00.303Z,7.30
2019-03-18T18:10:29.954Z,5.87
2019-03-18T18:12:59.312Z,6.30
2019-03-18T18:15:28.629Z,5.47
2019-03-18T18:17:58.356Z,5.37
2019-03-18T18:20:29.687Z,6.03
2019-03-18T18:22:58.988Z,6.03
2019-03-18T18:25:28.199Z,6.37
2019-03-18T18:28:00.877Z,9.97
2019-03-18T18:30:30.687Z,8.80
2019-03-18T18:33:00.033Z,5.93
2019-03-18T18:35:29.240Z,7.63
2019-03-18T18:37:58.817Z,6.77
2019-03-18T18:40:28.177Z,6.40
2019-03-18T18:42:57.845Z,8.37
2019-03-18T18:45:27.244Z,5.63
2019-03-18T18:47:59.870Z,7.57
2019-03-18T18:50:29.217Z,5.80
2019-03-18T18:53:07.535Z,7.23
2019-03-18T18:55:36.850Z,7.50
2019-03-18T18:58:06.217Z,5.97
2019-03-18T19:00:35.453Z,8.10
2019-03-18T19:03:04.846Z,6.20
2019-03-18T19:05:34.450Z,10.13
2019-03-18T19:08:08.506Z,11.70
2019-03-18T19:10:41.454Z,9.73
2019-03-18T19:13:11.147Z,8.30
2019-03-18T19:15:41.553Z,7.27
2019-03-18T19:18:10.911Z,7.47
2019-03-18T19:20:40.560Z,9.97
2019-03-18T19:23:10.491Z,7.97
2019-03-18T19:25:40.404Z,10.90
2019-03-18T19:28:09.907Z,6.00
2019-03-18T19:30:40.997Z,6.37
2019-03-18T19:33:10.685Z,8.77
2019-03-18T19:35:41.475Z,7.60
2019-03-18T19:38:10.842Z,9.03
2019-03-18T19:40:40.145Z,12.60
2019-03-18T19:43:09.601Z,17.30
2019-03-18T19:45:39.342Z,12.70
2019-03-18T19:48:08.822Z,13.00
2019-03-18T19:50:43.844Z,11.50
2019-03-18T19:53:13.901Z,11.53
2019-03-18T19:55:44.350Z,8.60
2019-03-18T19:58:15.332Z,10.73
2019-03-18T20:00:45.361Z,17.63
2019-03-18T20:03:16.495Z,29.03
2019-03-18T20:05:46.712Z,10.53
2019-03-18T20:08:16.061Z,11.00
2019-03-18T20:10:45.719Z,12.67
2019-03-18T20:13:15.037Z,14.13
2019-03-18T20:15:44.474Z,11.37
2019-03-18T20:18:13.805Z,11.90
2019-03-18T20:20:43.591Z,12.80
2019-03-18T20:23:12.924Z,13.73
2019-03-18T20:25:42.283Z,12.27
2019-03-18T20:28:11.681Z,9.77
2019-03-18T20:30:40.966Z,15.00
2019-03-18T20:33:10.290Z,10.90
2019-03-18T20:35:39.523Z,10.37
2019-03-18T20:38:08.836Z,10.03
2019-03-18T20:40:38.182Z,9.57
2019-03-18T20:43:07.836Z,7.60
2019-03-18T20:45:37.141Z,8.30
2019-03-18T20:48:06.531Z,7.83
2019-03-18T20:50:35.834Z,8.57
2019-03-18T20:53:05.406Z,7.47
2019-03-18T20:55:34.739Z,10.60
2019-03-18T20:58:04.661Z,13.10
2019-03-18T21:00:34.048Z,8.30
2019-03-18T21:03:03.376Z,9.43
2019-03-18T21:05:33.170Z,9.37
2019-03-18T21:08:02.438Z,9.17
2019-03-18T21:10:31.794Z,8.20
2019-03-18T21:13:01.025Z,12.03
2019-03-18T21:15:30.550Z,14.97
2019-03-18T21:17:59.908Z,15.93
2019-03-18T21:20:29.216Z,15.00
2019-03-18T21:22:58.537Z,8.00
2019-03-18T21:25:28.278Z,10.63
2019-03-18T21:27:57.574Z,11.23
2019-03-18T21:30:26.831Z,11.10
2019-03-18T21:32:56.137Z,10.07
2019-03-18T21:35:25.421Z,10.67
2019-03-18T21:37:54.799Z,8.27
2019-03-18T21:40:39.080Z,11.67
2019-03-18T21:43:11.108Z,10.07
2019-03-18T21:45:40.813Z,11.47
2019-03-18T21:48:10.508Z,11.43
2019-03-18T21:50:40.020Z,11.93
2019-03-18T21:53:09.226Z,12.80
2019-03-18T21:55:38.847Z,12.47
2019-03-18T21:58:08.455Z,11.23
2019-03-18T22:00:38.436Z,11.30
2019-03-18T22:03:07.719Z,12.67
2019-03-18T22:05:37.342Z,12.10
2019-03-18T22:08:07.388Z,11.10
2019-03-18T22:10:36.888Z,10.27
2019-03-18T22:13:06.222Z,11.53
2019-03-18T22:15:35.441Z,12.20
2019-03-18T22:18:05.053Z,9.17
2019-03-18T22:20:34.297Z,14.67
2019-03-18T22:23:04.057Z,12.10
2019-03-18T22:25:34.706Z,15.13
2019-03-18T22:28:04.541Z,15.63
2019-03-18T22:30:33.800Z,15.73
2019-03-18T22:33:03.102Z,13.10
2019-03-18T22:35:32.455Z,9.60
2019-03-18T22:38:01.653Z,11.27
2019-03-18T22:40:31.004Z,11.90
2019-03-18T22:43:00.296Z,11.10
2019-03-18T22:45:29.881Z,11.57
2019-03-18T22:47:59.196Z,11.17
2019-03-18T22:50:28.592Z,8.50
2019-03-18T22:52:57.957Z,8.27
2019-03-18T22:55:27.290Z,9.63
2019-03-18T22:57:57.055Z,10.53
2019-03-18T23:00:46.006Z,11.00
2019-03-18T23:03:15.509Z,10.40
2019-03-18T23:05:44.695Z,11.67
2019-03-18T23:08:14.155Z,11.73
2019-03-18T23:10:43.418Z,7.23
2019-03-18T23:13:13.048Z,9.60
2019-03-18T23:15:43.282Z,13.87
2019-03-18T23:18:12.899Z,12.67
2019-03-18T23:20:45.779Z,9.67
2019-03-18T23:23:15.080Z,10.73
2019-03-18T23:25:44.627Z,12.30
2019-03-18T23:28:15.905Z,9.10
2019-03-18T23:30:45.006Z,8.50
2019-03-18T23:33:14.357Z,13.47
2019-03-18T23:35:43.702Z,8.70
2019-03-18T23:38:14.249Z,10.10
2019-03-18T23:40:43.556Z,8.97
2019-03-18T23:43:12.818Z,9.47
2019-03-18T23:45:42.181Z,8.80
2019-03-18T23:48:15.623Z,10.43
2019-03-18T23:50:44.952Z,10.57
2019-03-18T23:53:14.249Z,12.90
2019-03-18T23:55:43.434Z,10.83
2019-03-18T23:58:12.746Z,12.27
